ECV56J LDSP-LATI
Flight info
| Callsign | ECV56J |
|---|---|
| Flight time | 0h 34m |
| Altitude | 27000 |
| Route | SIPAL1W SIPAL DCT DBK DCT PETAK PETAK3M |
| Aircraft | A320/M-SDE3FGHIRWY/LB1 |
Departure
| Time | 2026-05-07 20:00 |
|---|---|
| Airport | Split Saint Jerome Airport (LDSP) |
Arrival
| Time | 2026-05-07 20:34 |
|---|---|
| Airport | Tirana International Airport Mother Teresa (LATI) |
| Time | Latitude | Longitude | Altitude | Speed | Heading |
|---|---|---|---|---|---|
| 2026-05-07 19:13 | 43.53691 | 16.29808 | 86 ft | 0 kts | 117° |
| 2026-05-07 19:35 | 43.53694 | 16.29799 | 81 ft | 2 kts | 117° |
| 2026-05-07 19:36 | 43.53702 | 16.29779 | 86 ft | 2 kts | 117° |
| 2026-05-07 19:36 | 43.53709 | 16.29759 | 87 ft | 2 kts | 117° |
| 2026-05-07 19:36 | 43.53717 | 16.29739 | 86 ft | 2 kts | 155° |
| 2026-05-07 19:36 | 43.53733 | 16.29737 | 87 ft | 3 kts | 226° |
| 2026-05-07 19:37 | 43.53740 | 16.29760 | 89 ft | 3 kts | 280° |
| 2026-05-07 19:37 | 43.53739 | 16.29769 | 86 ft | 0 kts | 288° |
| 2026-05-07 19:49 | 43.53744 | 16.29748 | 88 ft | 0 kts | 288° |
| 2026-05-07 19:49 | 43.53739 | 16.29736 | 84 ft | 2 kts | 234° |
| 2026-05-07 19:49 | 43.53721 | 16.29711 | 85 ft | 6 kts | 226° |
| 2026-05-07 19:50 | 43.53690 | 16.29665 | 87 ft | 8 kts | 229° |
| 2026-05-07 19:50 | 43.53665 | 16.29586 | 84 ft | 10 kts | 278° |
| 2026-05-07 19:50 | 43.53696 | 16.29496 | 85 ft | 12 kts | 272° |
| 2026-05-07 19:50 | 43.53653 | 16.29369 | 84 ft | 19 kts | 234° |
| 2026-05-07 19:51 | 43.53549 | 16.29179 | 81 ft | 31 kts | 233° |
| 2026-05-07 19:51 | 43.53398 | 16.28903 | 86 ft | 41 kts | 232° |
| 2026-05-07 19:51 | 43.53235 | 16.28614 | 89 ft | 41 kts | 238° |
| 2026-05-07 19:51 | 43.53234 | 16.28612 | 89 ft | 40 kts | 239° |
| 2026-05-07 19:52 | 43.53215 | 16.28566 | 90 ft | 33 kts | 241° |
| 2026-05-07 19:52 | 43.53091 | 16.28452 | 88 ft | 9 kts | 157° |
| 2026-05-07 19:52 | 43.53085 | 16.28457 | 86 ft | 0 kts | 153° |
| 2026-05-07 19:53 | 43.53094 | 16.28451 | 89 ft | 0 kts | 153° |
| 2026-05-07 19:53 | 43.53100 | 16.28447 | 90 ft | 2 kts | 153° |
| 2026-05-07 19:53 | 43.53106 | 16.28443 | 89 ft | 1 kts | 152° |
| 2026-05-07 19:54 | 43.53105 | 16.28447 | 89 ft | 1 kts | 125° |
| 2026-05-07 19:54 | 43.53109 | 16.28453 | 89 ft | 1 kts | 56° |
| 2026-05-07 19:54 | 43.53122 | 16.28468 | 88 ft | 3 kts | 44° |
| 2026-05-07 19:54 | 43.53125 | 16.28473 | 93 ft | 0 kts | 44° |
| 2026-05-07 19:56 | 43.53137 | 16.28488 | 91 ft | 6 kts | 43° |
| 2026-05-07 19:57 | 43.53165 | 16.28520 | 90 ft | 5 kts | 38° |
| 2026-05-07 19:57 | 43.53208 | 16.28569 | 91 ft | 10 kts | 41° |
| 2026-05-07 19:57 | 43.53241 | 16.28626 | 89 ft | 0 kts | 51° |
| 2026-05-07 19:57 | 43.53245 | 16.28633 | 89 ft | 3 kts | 51° |
| 2026-05-07 19:58 | 43.53266 | 16.28670 | 89 ft | 7 kts | 51° |
| 2026-05-07 19:58 | 43.53274 | 16.28684 | 89 ft | 2 kts | 51° |
| 2026-05-07 19:58 | 43.53279 | 16.28693 | 87 ft | 2 kts | 51° |
| 2026-05-07 19:58 | 43.53283 | 16.28700 | 87 ft | 0 kts | 51° |
| 2026-05-07 19:59 | 43.53285 | 16.28702 | 87 ft | 1 kts | 52° |
| 2026-05-07 19:59 | 43.53325 | 16.28777 | 86 ft | 36 kts | 54° |
| 2026-05-07 19:59 | 43.53628 | 16.29319 | 88 ft | 102 kts | 52° |
| 2026-05-07 19:59 | 43.54163 | 16.30297 | 122 ft | 143 kts | 52° |
| 2026-05-07 20:00 | 43.54748 | 16.31238 | 724 ft | 128 kts | 53° |
| 2026-05-07 20:00 | 43.55318 | 16.32295 | 950 ft | 144 kts | 52° |
| 2026-05-07 20:00 | 43.55721 | 16.33571 | 1348 ft | 150 kts | 86° |
| 2026-05-07 20:00 | 43.55616 | 16.34967 | 1910 ft | 145 kts | 108° |
| 2026-05-07 20:01 | 43.55095 | 16.36269 | 2131 ft | 170 kts | 131° |
| 2026-05-07 20:01 | 43.54055 | 16.37167 | 2554 ft | 183 kts | 162° |
| 2026-05-07 20:01 | 43.52780 | 16.37359 | 3158 ft | 185 kts | 172° |
| 2026-05-07 20:01 | 43.51544 | 16.37776 | 3771 ft | 183 kts | 156° |
| 2026-05-07 20:02 | 43.50484 | 16.38864 | 4101 ft | 203 kts | 129° |
| 2026-05-07 20:02 | 43.49713 | 16.40650 | 4375 ft | 229 kts | 123° |
| 2026-05-07 20:02 | 43.48805 | 16.42578 | 4769 ft | 252 kts | 127° |
| 2026-05-07 20:02 | 43.47776 | 16.44630 | 5399 ft | 265 kts | 127° |
| 2026-05-07 20:03 | 43.46707 | 16.46747 | 6204 ft | 272 kts | 127° |
| 2026-05-07 20:03 | 43.45622 | 16.48911 | 7011 ft | 277 kts | 127° |
| 2026-05-07 20:03 | 43.44523 | 16.51121 | 7819 ft | 282 kts | 127° |
| 2026-05-07 20:03 | 43.43413 | 16.53372 | 8621 ft | 287 kts | 127° |
| 2026-05-07 20:04 | 43.42289 | 16.55660 | 9426 ft | 291 kts | 127° |
| 2026-05-07 20:04 | 43.41148 | 16.57986 | 10171 ft | 298 kts | 127° |
| 2026-05-07 20:04 | 43.39941 | 16.60441 | 10434 ft | 321 kts | 127° |
| 2026-05-07 20:04 | 43.38646 | 16.63074 | 10618 ft | 344 kts | 126° |
| 2026-05-07 20:05 | 43.37259 | 16.65896 | 10759 ft | 368 kts | 126° |
| 2026-05-07 20:05 | 43.35782 | 16.68893 | 10885 ft | 389 kts | 127° |
| 2026-05-07 20:05 | 43.34222 | 16.72009 | 11333 ft | 400 kts | 127° |
| 2026-05-07 20:05 | 43.32654 | 16.75184 | 12006 ft | 404 kts | 126° |
| 2026-05-07 20:06 | 43.31077 | 16.78406 | 12682 ft | 409 kts | 126° |
| 2026-05-07 20:06 | 43.29485 | 16.81669 | 13373 ft | 414 kts | 126° |
| 2026-05-07 20:06 | 43.27873 | 16.84971 | 14026 ft | 418 kts | 126° |
| 2026-05-07 20:06 | 43.26240 | 16.88299 | 14625 ft | 423 kts | 126° |
| 2026-05-07 20:07 | 43.24577 | 16.91665 | 15212 ft | 427 kts | 127° |
| 2026-05-07 20:07 | 43.22898 | 16.95047 | 15766 ft | 432 kts | 127° |
| 2026-05-07 20:07 | 43.21199 | 16.98464 | 16302 ft | 436 kts | 127° |
| 2026-05-07 20:07 | 43.19475 | 17.01929 | 16840 ft | 440 kts | 127° |
| 2026-05-07 20:08 | 43.17740 | 17.05417 | 17344 ft | 444 kts | 127° |
| 2026-05-07 20:08 | 43.15993 | 17.08926 | 17861 ft | 448 kts | 127° |
| 2026-05-07 20:08 | 43.14228 | 17.12472 | 18370 ft | 452 kts | 128° |
| 2026-05-07 20:08 | 43.12454 | 17.16031 | 18809 ft | 456 kts | 128° |
| 2026-05-07 20:09 | 43.10666 | 17.19614 | 19269 ft | 458 kts | 127° |
| 2026-05-07 20:09 | 43.08856 | 17.23234 | 19745 ft | 461 kts | 128° |
| 2026-05-07 20:09 | 43.07041 | 17.26861 | 20204 ft | 464 kts | 128° |
| 2026-05-07 20:10 | 43.03368 | 17.34179 | 21068 ft | 470 kts | 128° |
| 2026-05-07 20:10 | 43.01513 | 17.37872 | 21477 ft | 473 kts | 128° |
| 2026-05-07 20:10 | 42.99640 | 17.41600 | 21858 ft | 476 kts | 128° |
| 2026-05-07 20:10 | 42.97759 | 17.45339 | 22241 ft | 479 kts | 128° |
| 2026-05-07 20:11 | 42.95875 | 17.49080 | 22602 ft | 482 kts | 128° |
| 2026-05-07 20:11 | 42.93963 | 17.52873 | 22953 ft | 484 kts | 128° |
| 2026-05-07 20:11 | 42.92052 | 17.56662 | 23419 ft | 484 kts | 128° |
| 2026-05-07 20:11 | 42.90141 | 17.60443 | 23882 ft | 484 kts | 128° |
| 2026-05-07 20:12 | 42.88226 | 17.64223 | 24278 ft | 484 kts | 128° |
| 2026-05-07 20:12 | 42.86317 | 17.67986 | 24691 ft | 484 kts | 128° |
| 2026-05-07 20:12 | 42.84395 | 17.71769 | 25091 ft | 485 kts | 128° |
| 2026-05-07 20:12 | 42.82476 | 17.75541 | 25479 ft | 485 kts | 128° |
| 2026-05-07 20:13 | 42.80549 | 17.79317 | 25910 ft | 485 kts | 128° |
| 2026-05-07 20:13 | 42.78625 | 17.83076 | 26360 ft | 485 kts | 129° |
| 2026-05-07 20:13 | 42.76695 | 17.86846 | 26789 ft | 485 kts | 129° |
| 2026-05-07 20:13 | 42.74768 | 17.90612 | 27024 ft | 487 kts | 129° |
| 2026-05-07 20:14 | 42.72811 | 17.94434 | 27075 ft | 495 kts | 129° |
| 2026-05-07 20:14 | 42.70828 | 17.98302 | 27069 ft | 501 kts | 129° |
| 2026-05-07 20:14 | 42.68828 | 18.02203 | 27074 ft | 503 kts | 129° |
| 2026-05-07 20:14 | 42.66831 | 18.06098 | 27077 ft | 503 kts | 129° |
| 2026-05-07 20:15 | 42.64832 | 18.09993 | 27079 ft | 503 kts | 129° |
| 2026-05-07 20:15 | 42.62830 | 18.13883 | 27082 ft | 503 kts | 129° |
| 2026-05-07 20:15 | 42.60842 | 18.17736 | 27083 ft | 503 kts | 129° |
| 2026-05-07 20:15 | 42.58833 | 18.21620 | 27085 ft | 503 kts | 129° |
| 2026-05-07 20:16 | 42.56731 | 18.25479 | 27084 ft | 500 kts | 134° |
| 2026-05-07 20:16 | 42.54359 | 18.28900 | 27061 ft | 496 kts | 139° |
| 2026-05-07 20:16 | 42.51915 | 18.32199 | 27070 ft | 496 kts | 139° |
| 2026-05-07 20:16 | 42.49501 | 18.35459 | 27089 ft | 496 kts | 139° |
| 2026-05-07 20:17 | 42.47063 | 18.38760 | 27089 ft | 495 kts | 139° |
| 2026-05-07 20:17 | 42.44634 | 18.42051 | 27086 ft | 495 kts | 139° |
| 2026-05-07 20:17 | 42.42200 | 18.45348 | 27072 ft | 494 kts | 139° |
| 2026-05-07 20:17 | 42.39768 | 18.48637 | 27087 ft | 494 kts | 139° |
| 2026-05-07 20:18 | 42.37340 | 18.51915 | 27094 ft | 494 kts | 139° |
| 2026-05-07 20:18 | 42.34907 | 18.55194 | 27101 ft | 494 kts | 139° |
| 2026-05-07 20:18 | 42.32440 | 18.58512 | 27091 ft | 494 kts | 139° |
| 2026-05-07 20:18 | 42.30039 | 18.61735 | 27088 ft | 493 kts | 139° |
| 2026-05-07 20:19 | 42.27616 | 18.64985 | 26910 ft | 484 kts | 139° |
| 2026-05-07 20:19 | 42.25267 | 18.68141 | 26659 ft | 469 kts | 139° |
| 2026-05-07 20:19 | 42.22981 | 18.71212 | 26409 ft | 457 kts | 139° |
| 2026-05-07 20:19 | 42.20759 | 18.74196 | 26153 ft | 445 kts | 139° |
| 2026-05-07 20:20 | 42.18587 | 18.77105 | 25887 ft | 435 kts | 139° |
| 2026-05-07 20:20 | 42.16450 | 18.79958 | 25648 ft | 427 kts | 139° |
| 2026-05-07 20:20 | 42.14357 | 18.82741 | 25397 ft | 420 kts | 139° |
| 2026-05-07 20:20 | 42.12298 | 18.85477 | 25159 ft | 414 kts | 139° |
| 2026-05-07 20:21 | 42.10263 | 18.88178 | 24927 ft | 408 kts | 139° |
| 2026-05-07 20:21 | 42.08261 | 18.90833 | 24778 ft | 400 kts | 139° |
| 2026-05-07 20:21 | 42.06300 | 18.93438 | 24664 ft | 392 kts | 139° |
| 2026-05-07 20:21 | 42.04377 | 18.95991 | 24330 ft | 383 kts | 139° |
| 2026-05-07 20:22 | 42.02491 | 18.98490 | 23711 ft | 378 kts | 138° |
| 2026-05-07 20:22 | 42.00626 | 19.00957 | 23004 ft | 374 kts | 138° |
| 2026-05-07 20:22 | 41.98781 | 19.03401 | 22317 ft | 369 kts | 139° |
| 2026-05-07 20:22 | 41.97576 | 19.04997 | 21870 ft | 366 kts | 139° |
| 2026-05-07 20:23 | 41.95766 | 19.07393 | 21216 ft | 362 kts | 139° |
| 2026-05-07 20:23 | 41.93985 | 19.09748 | 20570 ft | 357 kts | 139° |
| 2026-05-07 20:23 | 41.92224 | 19.12069 | 19933 ft | 353 kts | 139° |
| 2026-05-07 20:23 | 41.90487 | 19.14354 | 19321 ft | 349 kts | 139° |
| 2026-05-07 20:24 | 41.88761 | 19.16625 | 18721 ft | 344 kts | 139° |
| 2026-05-07 20:24 | 41.87059 | 19.18868 | 18100 ft | 341 kts | 139° |
| 2026-05-07 20:24 | 41.85382 | 19.21081 | 17443 ft | 336 kts | 139° |
| 2026-05-07 20:24 | 41.83720 | 19.23270 | 16796 ft | 332 kts | 139° |
| 2026-05-07 20:25 | 41.82081 | 19.25425 | 16172 ft | 328 kts | 139° |
| 2026-05-07 20:25 | 41.80462 | 19.27547 | 15561 ft | 324 kts | 139° |
| 2026-05-07 20:25 | 41.78856 | 19.29648 | 14978 ft | 321 kts | 139° |
| 2026-05-07 20:25 | 41.77292 | 19.31764 | 14385 ft | 319 kts | 134° |
| 2026-05-07 20:26 | 41.75884 | 19.34032 | 13831 ft | 315 kts | 134° |
| 2026-05-07 20:26 | 41.74489 | 19.36268 | 13217 ft | 311 kts | 134° |
| 2026-05-07 20:26 | 41.73107 | 19.38475 | 12617 ft | 307 kts | 134° |
| 2026-05-07 20:26 | 41.71746 | 19.40647 | 12028 ft | 303 kts | 134° |
| 2026-05-07 20:27 | 41.70406 | 19.42782 | 11458 ft | 299 kts | 134° |
| 2026-05-07 20:27 | 41.69075 | 19.44899 | 10894 ft | 295 kts | 133° |
| 2026-05-07 20:27 | 41.67760 | 19.46990 | 10321 ft | 292 kts | 133° |
| 2026-05-07 20:27 | 41.66456 | 19.49065 | 9728 ft | 290 kts | 133° |
| 2026-05-07 20:28 | 41.65173 | 19.51127 | 9130 ft | 287 kts | 129° |
| 2026-05-07 20:28 | 41.64240 | 19.53471 | 8554 ft | 288 kts | 111° |
| 2026-05-07 20:28 | 41.63910 | 19.56134 | 7808 ft | 296 kts | 92° |
| 2026-05-07 20:28 | 41.64090 | 19.58893 | 7038 ft | 300 kts | 87° |
| 2026-05-07 20:29 | 41.64308 | 19.61680 | 6259 ft | 303 kts | 87° |
| 2026-05-07 20:29 | 41.64526 | 19.64501 | 5449 ft | 304 kts | 86° |
| 2026-05-07 20:29 | 41.64447 | 19.67279 | 4673 ft | 298 kts | 108° |
| 2026-05-07 20:29 | 41.63369 | 19.69549 | 4089 ft | 286 kts | 141° |
| 2026-05-07 20:30 | 41.61619 | 19.70567 | 3767 ft | 271 kts | 175° |
| 2026-05-07 20:30 | 41.59827 | 19.70147 | 3442 ft | 259 kts | 201° |
| 2026-05-07 20:30 | 41.58151 | 19.69463 | 3122 ft | 245 kts | 180° |
| 2026-05-07 20:30 | 41.56543 | 19.69877 | 2825 ft | 231 kts | 162° |
| 2026-05-07 20:31 | 41.55005 | 19.70273 | 2521 ft | 221 kts | 173° |
| 2026-05-07 20:31 | 41.53504 | 19.70467 | 2252 ft | 211 kts | 174° |
| 2026-05-07 20:31 | 41.52116 | 19.70642 | 1992 ft | 191 kts | 174° |
| 2026-05-07 20:31 | 41.50882 | 19.70804 | 1749 ft | 167 kts | 173° |
| 2026-05-07 20:32 | 41.49767 | 19.70952 | 1521 ft | 156 kts | 173° |
| 2026-05-07 20:32 | 41.48710 | 19.71093 | 1328 ft | 151 kts | 173° |
| 2026-05-07 20:32 | 41.47670 | 19.71227 | 1093 ft | 148 kts | 174° |
| 2026-05-07 20:32 | 41.46661 | 19.71376 | 899 ft | 144 kts | 172° |
| 2026-05-07 20:33 | 41.45664 | 19.71508 | 744 ft | 143 kts | 174° |
| 2026-05-07 20:33 | 41.44680 | 19.71634 | 563 ft | 141 kts | 174° |
| 2026-05-07 20:33 | 41.43720 | 19.71756 | 365 ft | 139 kts | 174° |
| 2026-05-07 20:33 | 41.42762 | 19.71894 | 199 ft | 138 kts | 172° |
| 2026-05-07 20:34 | 41.41843 | 19.72010 | 119 ft | 113 kts | 173° |
| 2026-05-07 20:34 | 41.41244 | 19.72092 | 123 ft | 62 kts | 174° |
| 2026-05-07 20:34 | 41.40911 | 19.72130 | 123 ft | 29 kts | 188° |
| 2026-05-07 20:34 | 41.40847 | 19.72118 | 124 ft | 3 kts | 153° |
| 2026-05-07 20:35 | 41.40847 | 19.72124 | 124 ft | 1 kts | 103° |